Time;durP1;ratioP1;P1;durP2;ratioP2;P2;SDS_P1;SDS_P2;PMS_P1;PMS_P2;Temp;Humidity;BMP_temperature;BMP_pressure;BME280_temperature;BME280_humidity;BME280_pressure;Samples;Min_cycle;Max_cycle;Signal;HPM_P1;HPM_P2
2023/12/01 00:02:10;;;;;;;49.90;16.10;;;-0.20;99.90;;;;;;5015899;28;20094;-68
2023/12/01 00:04:37;;;;;;;47.55;16.85;;;-0.20;99.90;;;;;;5028496;28;20103;-69
2023/12/01 00:07:03;;;;;;;50.92;15.85;;;-0.20;99.90;;;;;;5033533;28;20061;-69
2023/12/01 00:09:29;;;;;;;45.28;15.00;;;-0.10;99.90;;;;;;5013420;28;20135;-69
2023/12/01 00:11:54;;;;;;;45.53;15.05;;;-0.10;99.90;;;;;;5032897;28;20140;-69
2023/12/01 00:14:20;;;;;;;45.97;15.10;;;-0.10;99.90;;;;;;5034308;28;21670;-70
2023/12/01 00:16:45;;;;;;;47.05;15.23;;;-0.20;99.90;;;;;;5012413;28;20037;-69
2023/12/01 00:19:11;;;;;;;43.28;14.40;;;-0.20;99.90;;;;;;5013777;28;20043;-68
2023/12/01 00:21:37;;;;;;;40.65;14.75;;;-0.20;99.90;;;;;;5031833;28;20025;-69
2023/12/01 00:24:03;;;;;;;41.00;13.15;;;-0.20;99.90;;;;;;5029410;28;20129;-70
2023/12/01 00:26:28;;;;;;;36.33;12.63;;;-0.20;99.90;;;;;;5030436;28;20354;-69
2023/12/01 00:28:54;;;;;;;40.28;13.23;;;-0.20;99.90;;;;;;5010901;28;20072;-68
2023/12/01 00:31:20;;;;;;;36.05;13.40;;;-0.10;99.90;;;;;;5026717;28;20608;-69
2023/12/01 00:33:45;;;;;;;30.77;11.85;;;-0.20;99.90;;;;;;5042325;28;20046;-69
2023/12/01 00:36:11;;;;;;;41.10;14.15;;;-0.10;99.90;;;;;;5031493;28;20397;-69
2023/12/01 00:38:36;;;;;;;36.15;12.82;;;-0.10;99.90;;;;;;5029378;28;20065;-69
2023/12/01 00:41:03;;;;;;;30.75;11.95;;;-0.20;99.90;;;;;;5028865;28;20752;-69
2023/12/01 00:43:28;;;;;;;30.65;12.55;;;-0.10;99.90;;;;;;5042401;28;20086;-69
2023/12/01 00:45:54;;;;;;;33.92;12.07;;;-0.20;99.90;;;;;;5031025;28;20128;-69
2023/12/01 00:48:20;;;;;;;31.73;11.50;;;-0.30;99.90;;;;;;5027981;28;20124;-69
2023/12/01 00:50:45;;;;;;;32.13;12.55;;;-0.30;99.90;;;;;;5027270;28;20052;-69
2023/12/01 00:53:11;;;;;;;34.47;12.38;;;-0.30;99.90;;;;;;5027742;28;20440;-69
2023/12/01 00:55:36;;;;;;;30.35;11.95;;;-0.20;99.90;;;;;;5029655;28;20037;-70
2023/12/01 00:58:03;;;;;;;32.10;12.85;;;-0.30;99.90;;;;;;5012288;28;20042;-69
2023/12/01 01:00:28;;;;;;;34.30;12.48;;;-0.20;99.90;;;;;;5029249;28;20038;-69
2023/12/01 01:02:54;;;;;;;31.50;13.07;;;-0.30;99.90;;;;;;5029148;28;20838;-69
2023/12/01 01:05:20;;;;;;;31.70;12.25;;;-0.30;99.90;;;;;;5030998;28;20029;-69
2023/12/01 01:07:46;;;;;;;38.30;14.38;;;-0.30;99.90;;;;;;5026738;28;20259;-70
2023/12/01 01:10:11;;;;;;;35.25;12.57;;;-0.30;99.90;;;;;;5027824;28;20029;-69
2023/12/01 01:12:37;;;;;;;45.63;13.05;;;-0.20;99.90;;;;;;5031184;28;20072;-69
2023/12/01 01:15:03;;;;;;;37.20;13.57;;;-0.20;99.90;;;;;;5031308;28;20588;-69
2023/12/01 01:17:32;;;;;;;34.22;13.25;;;-0.30;99.90;;;;;;5012905;28;20068;-69
2023/12/01 01:19:59;;;;;;;38.20;14.13;;;-0.30;99.90;;;;;;5027904;28;20139;-69
2023/12/01 01:22:26;;;;;;;35.42;13.35;;;-0.30;99.90;;;;;;5029037;28;20405;-69
2023/12/01 01:24:52;;;;;;;33.95;13.43;;;-0.20;99.90;;;;;;5027708;28;20481;-69
2023/12/01 01:27:18;;;;;;;38.00;14.77;;;-0.30;99.90;;;;;;5027881;28;20350;-69
2023/12/01 01:29:44;;;;;;;38.78;15.13;;;-0.40;99.90;;;;;;5028212;28;20068;-69
2023/12/01 01:32:11;;;;;;;37.78;13.57;;;-0.30;99.90;;;;;;5028847;28;20080;-69
2023/12/01 01:34:37;;;;;;;37.67;14.68;;;-0.40;99.90;;;;;;5027376;28;20091;-70
2023/12/01 01:37:02;;;;;;;41.08;14.60;;;-0.40;99.90;;;;;;5028198;28;20712;-69
2023/12/01 01:39:28;;;;;;;38.40;13.60;;;-0.50;99.90;;;;;;5009330;28;20489;-69
2023/12/01 01:41:55;;;;;;;43.92;14.55;;;-0.60;99.90;;;;;;5013381;28;20037;-69
2023/12/01 01:44:21;;;;;;;39.13;14.48;;;-0.70;99.90;;;;;;5031767;28;20037;-69
2023/12/01 01:46:47;;;;;;;42.85;16.02;;;-0.70;99.90;;;;;;5029762;28;20111;-70
2023/12/01 01:49:14;;;;;;;44.92;14.63;;;-0.70;99.90;;;;;;5033926;28;20128;-70
2023/12/01 01:51:39;;;;;;;43.15;14.75;;;-0.70;99.90;;;;;;5028760;28;20041;-70
2023/12/01 01:54:06;;;;;;;43.10;14.77;;;-0.70;99.90;;;;;;5026802;28;20496;-70
2023/12/01 01:56:33;;;;;;;36.55;14.05;;;-0.70;99.90;;;;;;5028023;28;20063;-70
2023/12/01 01:59:00;;;;;;;40.67;16.20;;;-0.80;99.90;;;;;;5024647;28;20033;-70
2023/12/01 02:01:25;;;;;;;44.22;15.27;;;-0.70;99.90;;;;;;5026848;28;20041;-71
2023/12/01 02:03:52;;;;;;;37.83;14.25;;;-0.80;99.90;;;;;;5025708;28;20044;-71
2023/12/01 02:06:19;;;;;;;39.33;14.55;;;-0.80;99.90;;;;;;5026029;28;20072;-70
2023/12/01 02:08:45;;;;;;;40.47;13.43;;;-1.00;99.90;;;;;;5024630;28;20056;-70
2023/12/01 02:11:13;;;;;;;40.28;13.60;;;-1.00;99.90;;;;;;5026898;28;20045;-71
2023/12/01 02:13:39;;;;;;;41.22;15.77;;;-1.10;99.90;;;;;;5031414;28;20041;-71
2023/12/01 02:16:09;;;;;;;39.88;13.73;;;-1.10;99.90;;;;;;5030736;28;20033;-71
2023/12/01 02:18:35;;;;;;;42.45;15.23;;;-1.20;99.90;;;;;;5028049;28;20045;-71
2023/12/01 02:21:00;;;;;;;40.70;14.00;;;-1.30;99.90;;;;;;5013308;28;20038;-71
2023/12/01 02:23:27;;;;;;;39.10;15.38;;;-1.30;99.90;;;;;;5028656;28;20069;-71
2023/12/01 02:25:53;;;;;;;40.13;15.88;;;-1.20;99.90;;;;;;5027388;28;20056;-71
2023/12/01 02:28:19;;;;;;;43.95;14.52;;;-1.20;99.90;;;;;;5009543;28;20064;-71
2023/12/01 02:30:52;;;;;;;39.08;13.90;;;-1.30;99.90;;;;;;5009760;28;20079;-72
2023/12/01 02:33:19;;;;;;;42.70;15.35;;;-1.40;99.90;;;;;;5023688;28;20138;-71
2023/12/01 02:35:54;;;;;;;43.10;14.35;;;-1.30;99.90;;;;;;5028831;28;20076;-71
2023/12/01 02:38:20;;;;;;;42.05;14.73;;;-1.30;99.90;;;;;;5027575;28;20489;-71
2023/12/01 02:40:49;;;;;;;38.80;14.73;;;-1.40;99.90;;;;;;5031123;28;20068;-72
2023/12/01 02:43:19;;;;;;;41.58;14.07;;;-1.30;99.90;;;;;;5014640;28;20155;-71
2023/12/01 02:45:45;;;;;;;;;;;-1.30;99.90;;;;;;5026990;28;20059;-71
2023/12/01 02:48:11;;;;;;;43.67;15.52;;;-1.20;99.90;;;;;;5041514;28;20521;-71
2023/12/01 02:50:37;;;;;;;41.00;13.55;;;-1.20;99.90;;;;;;5016186;28;20092;-72
2023/12/01 02:53:04;;;;;;;45.00;14.48;;;-1.20;99.90;;;;;;5032100;28;20501;-72
2023/12/01 02:55:30;;;;;;;42.28;14.02;;;-1.20;99.90;;;;;;5029681;28;20048;-71
2023/12/01 02:57:56;;;;;;;37.25;13.93;;;-1.20;99.90;;;;;;5029954;28;20037;-71
2023/12/01 03:00:22;;;;;;;39.63;13.77;;;-1.20;99.90;;;;;;5032509;28;20045;-71
2023/12/01 03:02:48;;;;;;;41.00;13.00;;;-1.20;99.90;;;;;;5015681;28;20045;-72
2023/12/01 03:05:14;;;;;;;42.50;14.13;;;-1.10;99.90;;;;;;5030769;28;20037;-72
2023/12/01 03:07:40;;;;;;;37.97;13.43;;;-1.20;99.90;;;;;;5031969;28;20053;-71
2023/12/01 03:10:08;;;;;;;38.42;13.70;;;-1.30;99.90;;;;;;5031453;28;20048;-72
2023/12/01 03:12:41;;;;;;;36.80;11.50;;;-1.30;99.90;;;;;;5031544;28;20690;-71
2023/12/01 03:15:17;;;;;;;44.75;14.20;;;-1.40;99.90;;;;;;5030965;28;20075;-72
2023/12/01 03:17:43;;;;;;;44.00;15.85;;;-1.50;99.90;;;;;;5013923;28;20203;-73
2023/12/01 03:20:10;;;;;;;43.75;13.40;;;-1.50;99.90;;;;;;5017497;28;20124;-72
2023/12/01 03:22:39;;;;;;;45.33;14.68;;;-1.50;99.90;;;;;;5031994;28;20510;-72
2023/12/01 03:25:12;;;;;;;49.22;15.48;;;-1.60;99.90;;;;;;5029583;28;20045;-72
2023/12/01 03:27:40;;;;;;;41.38;14.68;;;-1.50;99.90;;;;;;5013760;28;20139;-73
2023/12/01 03:30:13;;;;;;;40.38;14.18;;;-1.50;99.90;;;;;;5031561;28;20113;-72
2023/12/01 03:32:46;;;;;;;41.13;14.63;;;-1.50;99.90;;;;;;5014770;28;20105;-72
2023/12/01 03:35:13;;;;;;;40.83;13.27;;;-1.50;99.90;;;;;;5030501;28;20065;-74
2023/12/01 03:37:39;;;;;;;49.35;14.07;;;-1.60;99.90;;;;;;5032884;28;20041;-72
2023/12/01 03:40:12;;;;;;;45.28;14.40;;;-1.60;99.90;;;;;;5031336;28;20099;-73
2023/12/01 03:42:43;;;;;;;40.50;15.10;;;-1.70;99.90;;;;;;5051849;28;20033;-72
2023/12/01 03:45:12;;;;;;;42.08;13.95;;;-1.70;99.90;;;;;;5029414;28;20049;-73
2023/12/01 03:47:39;;;;;;;41.58;14.02;;;-1.70;99.90;;;;;;5026000;28;20095;-73
2023/12/01 03:50:06;;;;;;;41.00;14.00;;;-1.60;99.90;;;;;;5030098;28;20055;-74
2023/12/01 03:52:31;;;;;;;46.38;13.48;;;-1.60;99.90;;;;;;5032544;28;20047;-74
2023/12/01 03:55:01;;;;;;;39.72;14.18;;;-1.60;99.90;;;;;;5031120;28;20049;-73
2023/12/01 03:57:27;;;;;;;45.13;13.90;;;-1.60;99.90;;;;;;5031304;28;20052;-74
2023/12/01 03:59:54;;;;;;;40.95;12.65;;;-1.60;99.90;;;;;;5031729;28;20037;-74
2023/12/01 04:02:21;;;;;;;38.03;12.55;;;-1.60;99.90;;;;;;5034174;28;20484;-73
2023/12/01 04:04:46;;;;;;;40.10;13.07;;;-1.70;99.90;;;;;;5015304;28;20040;-74
2023/12/01 04:07:12;;;;;;;38.47;14.05;;;-1.70;99.90;;;;;;5034438;28;20507;-75
2023/12/01 04:09:37;;;;;;;36.00;11.93;;;-1.80;99.90;;;;;;5031854;28;20076;-75
2023/12/01 04:12:03;;;;;;;37.22;11.88;;;-1.90;99.90;;;;;;5033454;28;20049;-75
2023/12/01 04:14:30;;;;;;;39.80;13.98;;;-2.00;99.90;;;;;;5033302;28;20681;-74
2023/12/01 04:16:56;;;;;;;34.13;13.55;;;-2.10;99.90;;;;;;5014776;28;20468;-75
2023/12/01 04:19:22;;;;;;;37.78;12.68;;;-2.10;99.90;;;;;;5025700;28;22789;-74
2023/12/01 04:21:47;;;;;;;34.60;11.40;;;-2.20;99.90;;;;;;5030235;28;20032;-74
2023/12/01 04:24:13;;;;;;;37.55;12.82;;;-2.40;99.90;;;;;;5031817;28;20557;-75
2023/12/01 04:26:39;;;;;;;37.42;12.50;;;-2.30;99.90;;;;;;5032936;28;20033;-73
2023/12/01 04:29:04;;;;;;;33.70;12.25;;;-2.40;99.90;;;;;;5016682;28;20171;-72
2023/12/01 04:31:30;;;;;;;41.63;12.52;;;-2.40;99.90;;;;;;5034075;28;20497;-74
2023/12/01 04:33:56;;;;;;;33.25;11.93;;;-2.40;99.90;;;;;;5030479;28;20045;-75
2023/12/01 04:36:22;;;;;;;38.70;12.20;;;-2.40;99.90;;;;;;5016018;28;20029;-74
2023/12/01 04:38:48;;;;;;;34.25;12.30;;;-2.50;99.90;;;;;;5027424;28;20069;-74
2023/12/01 04:41:14;;;;;;;33.42;13.27;;;-2.60;99.90;;;;;;5029491;28;20065;-73
2023/12/01 04:43:40;;;;;;;28.27;11.35;;;-2.60;99.90;;;;;;5029255;28;20502;-73
2023/12/01 04:46:06;;;;;;;35.60;12.80;;;-2.70;99.90;;;;;;5030969;28;20098;-74
2023/12/01 04:48:32;;;;;;;28.80;10.55;;;-2.80;99.90;;;;;;5027837;28;20076;-73
2023/12/01 04:50:57;;;;;;;26.75;10.00;;;-2.80;99.90;;;;;;5006978;28;20183;-73
2023/12/01 04:53:23;;;;;;;29.98;11.23;;;-2.90;99.90;;;;;;5025997;28;20063;-73
2023/12/01 04:55:49;;;;;;;25.52;10.40;;;-2.90;99.90;;;;;;5032385;28;20083;-73
2023/12/01 04:58:15;;;;;;;29.17;9.63;;;-2.90;99.90;;;;;;5029154;28;20029;-74
2023/12/01 05:00:41;;;;;;;25.15;9.88;;;-3.00;99.90;;;;;;5029910;28;20067;-73
2023/12/01 05:03:07;;;;;;;27.90;10.90;;;-3.10;99.90;;;;;;5017008;28;20060;-74
2023/12/01 05:05:38;;;;;;;29.38;9.27;;;-3.20;99.90;;;;;;5031432;28;20033;-73
2023/12/01 05:08:05;;;;;;;33.42;10.52;;;-3.20;99.90;;;;;;5029659;28;20071;-73
2023/12/01 05:10:32;;;;;;;29.75;10.95;;;-3.30;99.90;;;;;;5046310;28;20041;-72
2023/12/01 05:13:01;;;;;;;26.73;9.93;;;-3.20;99.90;;;;;;5028359;28;20029;-73
2023/12/01 05:15:28;;;;;;;27.75;10.25;;;-3.30;99.90;;;;;;5034951;28;20055;-74
2023/12/01 05:18:02;;;;;;;29.27;10.93;;;-3.40;99.90;;;;;;5029083;28;20033;-72
2023/12/01 05:20:28;;;;;;;30.67;11.18;;;-3.40;99.90;;;;;;5028759;28;20040;-72
2023/12/01 05:23:05;;;;;;;32.65;11.85;;;-3.40;99.90;;;;;;5026793;28;20034;-72
2023/12/01 05:25:34;;;;;;;25.67;9.82;;;-3.50;99.90;;;;;;5031624;28;20506;-73
2023/12/01 05:28:02;;;;;;;29.50;9.77;;;-3.50;99.90;;;;;;5034897;28;20416;-73
2023/12/01 05:30:29;;;;;;;30.17;10.23;;;-3.60;99.90;;;;;;5046824;28;20075;-73
2023/12/01 05:32:55;;;;;;;30.00;10.23;;;-3.60;99.90;;;;;;5035299;28;20036;-73
2023/12/01 05:35:22;;;;;;;24.20;9.07;;;-3.70;99.90;;;;;;5031230;28;20118;-72
2023/12/01 05:37:50;;;;;;;28.15;10.68;;;-3.70;99.90;;;;;;5047288;28;20051;-73
2023/12/01 05:40:20;;;;;;;28.08;10.15;;;-3.80;99.90;;;;;;5027019;28;20045;-72
2023/12/01 05:42:47;;;;;;;26.02;11.05;;;-3.80;99.90;;;;;;5033993;28;20116;-71
2023/12/01 05:45:14;;;;;;;23.45;9.02;;;-3.80;99.90;;;;;;5042703;28;20428;-72
2023/12/01 05:47:44;;;;;;;28.50;10.55;;;-3.90;99.90;;;;;;5040614;28;20049;-72
2023/12/01 05:50:14;;;;;;;28.52;10.23;;;-4.00;99.90;;;;;;5022606;28;20131;-73
2023/12/01 05:52:41;;;;;;;26.25;10.90;;;-4.00;99.90;;;;;;5035100;28;20047;-72
2023/12/01 05:55:14;;;;;;;23.67;8.85;;;-4.00;99.90;;;;;;5029593;28;20046;-73
2023/12/01 05:57:42;;;;;;;22.75;9.88;;;-4.10;99.90;;;;;;5018056;28;20037;-73
2023/12/01 06:00:12;;;;;;;25.42;9.77;;;-4.20;99.90;;;;;;5039336;28;20040;-73
2023/12/01 06:02:45;;;;;;;32.17;11.20;;;-4.20;99.90;;;;;;5027208;28;20038;-72
2023/12/01 06:05:11;;;;;;;22.27;9.10;;;-4.20;99.90;;;;;;5010944;28;20033;-73
2023/12/01 06:07:38;;;;;;;31.00;10.52;;;-4.20;99.90;;;;;;5019105;28;20040;-71
2023/12/01 06:10:05;;;;;;;24.23;8.80;;;-4.10;99.90;;;;;;5039268;28;20797;-72
2023/12/01 06:12:32;;;;;;;22.30;9.02;;;-4.10;99.90;;;;;;5043294;28;20037;-76
2023/12/01 06:14:58;;;;;;;29.35;10.00;;;-4.10;99.90;;;;;;5014250;28;21973;-72
2023/12/01 06:17:24;;;;;;;25.63;10.63;;;-4.20;99.90;;;;;;5014766;28;20116;-72
2023/12/01 06:19:49;;;;;;;26.70;9.00;;;-4.20;99.90;;;;;;5008320;28;20060;-71
2023/12/01 06:22:15;;;;;;;30.67;9.80;;;-4.20;99.90;;;;;;5037399;28;20044;-72
2023/12/01 06:24:41;;;;;;;26.13;8.48;;;-4.20;99.90;;;;;;5034061;28;20472;-71
2023/12/01 06:27:07;;;;;;;25.17;9.40;;;-4.30;99.90;;;;;;5038612;28;20134;-72
2023/12/01 06:29:33;;;;;;;26.38;9.77;;;-4.40;99.90;;;;;;5047227;28;20501;-71
2023/12/01 06:31:58;;;;;;;28.15;10.18;;;-4.40;99.90;;;;;;5039043;28;20107;-72
2023/12/01 06:34:24;;;;;;;23.80;9.32;;;-4.40;99.90;;;;;;5031750;28;20045;-72
2023/12/01 06:36:50;;;;;;;25.67;9.60;;;-4.40;99.90;;;;;;5039027;28;20037;-71
2023/12/01 06:39:15;;;;;;;24.80;9.35;;;-4.40;99.90;;;;;;5037331;28;20107;-71
2023/12/01 06:41:41;;;;;;;23.20;7.90;;;-4.40;99.90;;;;;;5042851;28;20704;-71
2023/12/01 06:44:07;;;;;;;22.95;8.05;;;-4.50;99.90;;;;;;5034423;28;20099;-71
2023/12/01 06:46:33;;;;;;;23.85;8.32;;;-4.40;99.90;;;;;;5041939;28;20041;-72
2023/12/01 06:48:59;;;;;;;26.80;8.95;;;-4.50;99.90;;;;;;5027040;28;20103;-72
2023/12/01 06:51:25;;;;;;;25.25;9.35;;;-4.50;99.90;;;;;;5017273;28;20123;-71
2023/12/01 06:53:51;;;;;;;25.90;9.10;;;-4.50;99.90;;;;;;5031912;28;20673;-71
2023/12/01 06:56:17;;;;;;;21.48;8.13;;;-4.60;99.90;;;;;;5037152;28;20112;-71
2023/12/01 06:58:42;;;;;;;23.10;9.07;;;-4.50;99.90;;;;;;5028220;28;20033;-72
2023/12/01 07:01:11;;;;;;;25.38;8.75;;;-4.50;99.90;;;;;;5050263;28;20082;-71
2023/12/01 07:03:37;;;;;;;24.42;8.70;;;-4.60;99.90;;;;;;5036256;28;20451;-71
2023/12/01 07:06:04;;;;;;;22.60;8.82;;;-4.60;99.90;;;;;;5034047;28;20046;-71
2023/12/01 07:08:29;;;;;;;21.90;7.97;;;-4.60;99.90;;;;;;5032804;28;20049;-71
2023/12/01 07:10:55;;;;;;;26.45;8.65;;;-4.70;99.90;;;;;;5025347;28;20041;-72
2023/12/01 07:13:21;;;;;;;20.05;8.38;;;-4.80;99.90;;;;;;5042506;28;20049;-71
2023/12/01 07:15:47;;;;;;;21.85;7.88;;;-4.80;99.90;;;;;;5030885;28;20060;-71
2023/12/01 07:18:13;;;;;;;24.30;7.95;;;-4.80;99.90;;;;;;5032689;28;20034;-71
2023/12/01 07:20:38;;;;;;;25.27;8.23;;;-4.80;99.90;;;;;;5041195;28;20386;-71
2023/12/01 07:23:05;;;;;;;26.65;9.13;;;-4.80;99.90;;;;;;5029238;28;20041;-71
2023/12/01 07:25:31;;;;;;;22.42;8.98;;;-4.80;99.90;;;;;;5037937;28;20363;-71
2023/12/01 07:27:58;;;;;;;22.52;8.63;;;-4.70;99.90;;;;;;5034454;28;20033;-71
2023/12/01 07:30:27;;;;;;;27.70;9.27;;;-4.80;99.90;;;;;;5020832;28;20053;-71
2023/12/01 07:32:53;;;;;;;22.00;8.30;;;-4.70;99.90;;;;;;5034516;28;20623;-71
2023/12/01 07:35:19;;;;;;;24.42;9.02;;;-4.70;99.90;;;;;;5040264;28;20041;-71
2023/12/01 07:37:47;;;;;;;23.42;8.60;;;-4.70;99.90;;;;;;5028147;28;20036;-70
2023/12/01 07:40:19;;;;;;;27.23;10.38;;;-4.70;99.90;;;;;;5030588;28;20049;-71
2023/12/01 07:42:46;;;;;;;30.52;9.98;;;-4.70;99.90;;;;;;5023207;28;20033;-70
2023/12/01 07:45:17;;;;;;;31.08;10.73;;;-4.60;99.90;;;;;;5031058;28;20426;-71
2023/12/01 07:47:46;;;;;;;19.35;8.23;;;-4.60;99.90;;;;;;5043454;28;20093;-71
2023/12/01 07:50:14;;;;;;;24.57;9.13;;;-4.70;99.90;;;;;;5029280;28;20045;-71
2023/12/01 07:52:41;;;;;;;27.70;9.50;;;-4.70;99.90;;;;;;5014297;28;20432;-70
2023/12/01 07:55:07;;;;;;;25.88;8.95;;;-4.80;99.90;;;;;;5045003;28;20048;-71
2023/12/01 07:57:32;;;;;;;24.92;8.52;;;-4.80;99.90;;;;;;5033362;28;20116;-71
2023/12/01 07:59:58;;;;;;;25.65;8.88;;;-4.80;99.90;;;;;;5039269;28;20072;-71
2023/12/01 08:02:24;;;;;;;27.30;9.73;;;-4.80;99.90;;;;;;5042509;28;20329;-71
2023/12/01 08:04:49;;;;;;;26.23;9.38;;;-4.70;99.90;;;;;;5039420;28;20056;-71
2023/12/01 08:07:15;;;;;;;25.83;10.13;;;-4.70;99.90;;;;;;5037283;28;20037;-71
2023/12/01 08:09:42;;;;;;;27.88;9.85;;;-4.70;99.90;;;;;;5021834;28;20072;-71
2023/12/01 08:12:07;;;;;;;24.98;8.85;;;-4.60;99.90;;;;;;5040386;28;20553;-71
2023/12/01 08:14:33;;;;;;;24.13;8.40;;;-4.60;99.90;;;;;;5048367;28;20135;-71
2023/12/01 08:16:59;;;;;;;20.42;8.13;;;-4.60;99.90;;;;;;5022567;28;20045;-71
2023/12/01 08:19:24;;;;;;;30.88;9.20;;;-4.40;99.90;;;;;;5039166;28;20025;-72
2023/12/01 08:21:50;;;;;;;27.13;8.32;;;-4.30;99.90;;;;;;5043676;28;20045;-71
2023/12/01 08:24:18;;;;;;;29.85;10.40;;;-4.20;99.90;;;;;;5026836;28;20500;-71
2023/12/01 08:26:44;;;;;;;29.00;10.15;;;-4.10;99.90;;;;;;5047292;28;20347;-71
2023/12/01 08:29:09;;;;;;;30.02;10.48;;;-3.90;99.90;;;;;;5040430;28;20155;-72
2023/12/01 08:31:36;;;;;;;26.02;9.65;;;-3.80;99.90;;;;;;5046328;28;20041;-72
2023/12/01 08:34:02;;;;;;;32.05;10.68;;;-3.70;99.90;;;;;;5034547;28;20044;-72
2023/12/01 08:36:27;;;;;;;30.67;10.63;;;-3.70;99.90;;;;;;5036576;28;20029;-72
2023/12/01 08:38:53;;;;;;;27.88;10.55;;;-3.50;99.90;;;;;;5045369;28;20104;-71
2023/12/01 08:41:19;;;;;;;35.17;11.85;;;-3.30;99.90;;;;;;5038089;28;20090;-71
2023/12/01 08:43:44;;;;;;;29.20;10.38;;;-3.10;99.90;;;;;;5039719;28;20492;-72
2023/12/01 08:46:10;;;;;;;30.05;10.25;;;-2.90;99.90;;;;;;5035848;28;20029;-71
2023/12/01 08:48:35;;;;;;;31.52;11.60;;;-2.80;99.90;;;;;;5029414;28;20470;-71
2023/12/01 08:51:02;;;;;;;33.05;9.88;;;-2.60;99.90;;;;;;5017444;28;20099;-71
2023/12/01 08:53:28;;;;;;;32.65;10.93;;;-2.50;99.90;;;;;;5031972;28;20049;-72
2023/12/01 08:55:55;;;;;;;35.78;11.27;;;-2.40;99.90;;;;;;5043538;28;20045;-72
2023/12/01 08:58:22;;;;;;;33.72;11.23;;;-2.20;99.90;;;;;;5038728;28;20422;-70
2023/12/01 09:00:48;;;;;;;30.65;10.88;;;-2.00;99.90;;;;;;5032400;28;20174;-71
2023/12/01 09:03:14;;;;;;;28.95;10.63;;;-2.00;99.90;;;;;;5038352;28;20045;-72
2023/12/01 09:05:39;;;;;;;30.75;11.75;;;-1.90;99.90;;;;;;5043014;28;20485;-72
2023/12/01 09:08:05;;;;;;;29.63;10.27;;;-2.00;99.90;;;;;;5032647;28;20029;-72
2023/12/01 09:10:32;;;;;;;26.92;11.07;;;-1.90;99.90;;;;;;5038241;28;20051;-71
2023/12/01 09:12:58;;;;;;;28.70;10.82;;;-1.90;99.90;;;;;;5040687;28;20041;-72
2023/12/01 09:15:23;;;;;;;31.23;12.68;;;-1.90;99.90;;;;;;5038996;28;20033;-71
2023/12/01 09:17:49;;;;;;;28.13;11.15;;;-2.00;99.90;;;;;;5019867;28;20080;-73
2023/12/01 09:20:15;;;;;;;27.63;11.10;;;-2.00;99.90;;;;;;5022679;28;20048;-73
2023/12/01 09:22:41;;;;;;;29.23;11.45;;;-2.00;99.90;;;;;;5033979;28;20120;-73
2023/12/01 09:25:07;;;;;;;27.98;12.20;;;-1.90;99.90;;;;;;5029996;28;20044;-72
2023/12/01 09:27:33;;;;;;;27.63;10.80;;;-1.80;99.90;;;;;;5026112;28;20052;-73
2023/12/01 09:29:58;;;;;;;33.38;12.55;;;-1.80;99.90;;;;;;5046548;28;20362;-71
2023/12/01 09:32:24;;;;;;;30.15;12.38;;;-1.70;99.90;;;;;;5029881;28;20045;-72
2023/12/01 09:34:50;;;;;;;25.77;10.02;;;-1.70;99.90;;;;;;5023663;28;20044;-72
2023/12/01 09:37:17;;;;;;;27.38;10.50;;;-1.60;99.90;;;;;;5026460;28;20041;-72
2023/12/01 09:39:42;;;;;;;31.38;11.57;;;-1.60;99.90;;;;;;5034200;28;20442;-71
2023/12/01 09:42:09;;;;;;;29.30;11.35;;;-1.60;99.90;;;;;;5021380;28;20366;-73
2023/12/01 09:44:35;;;;;;;32.85;11.40;;;-1.60;99.90;;;;;;5037041;28;20068;-72
2023/12/01 09:47:06;;;;;;;28.98;11.52;;;-1.50;99.90;;;;;;5038914;28;20041;-72
2023/12/01 09:49:33;;;;;;;30.88;11.00;;;-1.70;99.90;;;;;;5057420;28;20358;-72
2023/12/01 09:52:01;;;;;;;26.67;10.05;;;-1.70;99.90;;;;;;5038711;28;20080;-72
2023/12/01 09:54:26;;;;;;;26.20;10.77;;;-1.70;99.90;;;;;;5033897;28;20049;-72
2023/12/01 09:56:53;;;;;;;28.67;10.85;;;-1.70;99.90;;;;;;5032138;28;20570;-72
2023/12/01 09:59:22;;;;;;;24.42;10.70;;;-1.70;99.90;;;;;;5026830;28;20037;-72
2023/12/01 10:01:49;;;;;;;29.03;10.30;;;-1.70;99.90;;;;;;5027427;28;20171;-72
2023/12/01 10:04:16;;;;;;;29.02;10.05;;;-1.70;99.90;;;;;;5010363;28;20140;-72
2023/12/01 10:06:41;;;;;;;25.90;10.20;;;-1.60;99.90;;;;;;5026936;28;20044;-71
2023/12/01 10:09:10;;;;;;;30.23;11.13;;;-1.60;99.90;;;;;;5038748;28;20036;-72
2023/12/01 10:11:36;;;;;;;28.23;11.60;;;-1.60;99.90;;;;;;5047268;28;20474;-72
2023/12/01 10:14:08;;;;;;;26.60;10.82;;;-1.50;99.90;;;;;;5013037;28;20052;-72
2023/12/01 10:16:35;;;;;;;26.65;10.75;;;-1.40;99.90;;;;;;5028076;28;20108;-71
2023/12/01 10:19:05;;;;;;;27.83;11.15;;;-1.40;99.90;;;;;;5017735;28;20064;-73
2023/12/01 10:21:41;;;;;;;28.50;11.07;;;-1.30;99.90;;;;;;5036228;28;20045;-72
2023/12/01 10:24:14;;;;;;;24.20;10.40;;;-1.30;99.90;;;;;;5032894;28;20374;-72
2023/12/01 10:26:40;;;;;;;25.73;10.20;;;-1.20;99.90;;;;;;5011520;28;20119;-73
2023/12/01 10:29:07;;;;;;;24.90;10.45;;;-1.10;99.90;;;;;;5019448;28;20056;-72
2023/12/01 10:31:33;;;;;;;24.77;10.35;;;-1.00;99.90;;;;;;5035692;28;20551;-72
2023/12/01 10:34:00;;;;;;;25.60;9.02;;;-1.00;99.90;;;;;;5029549;28;20046;-72
2023/12/01 10:36:26;;;;;;;28.98;10.63;;;-1.00;99.90;;;;;;5029889;28;20041;-72
2023/12/01 10:38:53;;;;;;;23.27;9.32;;;-1.00;99.90;;;;;;5037233;28;20052;-72
2023/12/01 10:41:20;;;;;;;26.77;10.02;;;-1.00;99.90;;;;;;5036337;28;20037;-72
2023/12/01 10:43:50;;;;;;;25.90;10.52;;;-1.00;99.90;;;;;;5018918;28;20120;-72
2023/12/01 10:46:17;;;;;;;25.88;9.57;;;-0.90;99.90;;;;;;5042008;28;20076;-72
2023/12/01 10:48:43;;;;;;;30.20;10.43;;;-0.80;99.90;;;;;;5045415;28;20053;-72
2023/12/01 10:51:11;;;;;;;25.48;10.35;;;-0.90;99.90;;;;;;5033396;28;20046;-72
2023/12/01 10:53:40;;;;;;;24.80;9.60;;;-0.90;99.90;;;;;;5037666;28;20638;-73
2023/12/01 10:56:12;;;;;;;25.10;9.80;;;-0.90;99.90;;;;;;5023805;28;20055;-72
2023/12/01 10:58:39;;;;;;;22.75;9.27;;;-0.90;99.90;;;;;;5046515;28;20041;-72
2023/12/01 11:01:05;;;;;;;23.23;9.02;;;-0.90;99.90;;;;;;5034800;28;20067;-73
2023/12/01 11:03:32;;;;;;;24.92;10.15;;;-0.80;99.90;;;;;;5023147;28;20072;-71
2023/12/01 11:06:10;;;;;;;30.85;11.25;;;-0.80;99.90;;;;;;5034278;28;20049;-75
2023/12/01 11:08:53;;;;;;;28.90;11.57;;;-0.80;99.90;;;;;;5041724;28;20125;-72
2023/12/01 11:11:58;;;;;;;27.60;10.57;;;-0.70;99.90;;;;;;5044061;28;20041;-72
2023/12/01 11:14:26;;;;;;;29.13;11.25;;;-0.60;99.90;;;;;;4997095;28;20065;-72
2023/12/01 11:16:53;;;;;;;26.48;10.70;;;-0.50;99.90;;;;;;5046077;28;20033;-73
2023/12/01 11:19:19;;;;;;;24.45;10.77;;;-0.40;99.90;;;;;;5035089;28;20045;-73
2023/12/01 11:21:56;;;;;;;31.10;11.93;;;-0.40;99.90;;;;;;5044826;28;20120;-72
2023/12/01 11:24:34;;;;;;;26.15;10.27;;;-0.40;99.90;;;;;;5029557;28;20144;-72
2023/12/01 11:27:04;;;;;;;26.13;9.43;;;-0.50;99.90;;;;;;5051778;28;20355;-71
2023/12/01 11:29:36;;;;;;;26.17;9.02;;;-0.50;99.90;;;;;;5016086;28;20423;-72
2023/12/01 11:32:03;;;;;;;27.95;11.40;;;-0.50;99.90;;;;;;5026707;28;20041;-73
2023/12/01 11:34:30;;;;;;;28.73;11.93;;;-0.50;99.90;;;;;;5039268;28;20045;-73
2023/12/01 11:36:56;;;;;;;24.95;10.02;;;-0.50;99.90;;;;;;5040117;28;20087;-70
2023/12/01 11:39:31;;;;;;;22.33;10.30;;;-0.50;99.90;;;;;;5036490;28;20137;-72
2023/12/01 11:42:02;;;;;;;20.00;9.35;;;-0.60;99.90;;;;;;5034276;28;20041;-72
2023/12/01 11:44:40;;;;;;;26.75;10.45;;;-0.50;99.90;;;;;;5032628;28;20397;-73
2023/12/01 11:47:08;;;;;;;22.25;9.88;;;-0.50;99.90;;;;;;5045251;28;20051;-72
2023/12/01 11:49:38;;;;;;;25.40;11.43;;;-0.40;99.90;;;;;;5037271;28;20132;-72
2023/12/01 11:52:14;;;;;;;21.92;10.40;;;-0.60;99.90;;;;;;5017327;28;20037;-73
2023/12/01 11:54:41;;;;;;;20.67;9.55;;;-0.60;99.90;;;;;;5036129;28;20033;-73
2023/12/01 11:57:09;;;;;;;22.73;10.23;;;-0.50;99.90;;;;;;5019317;28;20037;-73
2023/12/01 11:59:35;;;;;;;24.33;11.80;;;-0.50;99.90;;;;;;5030392;28;20563;-73
2023/12/01 12:02:02;;;;;;;25.05;10.40;;;-0.50;99.90;;;;;;5031097;28;20342;-73
2023/12/01 12:04:28;;;;;;;26.25;10.70;;;-0.50;99.90;;;;;;5028380;28;20029;-72
2023/12/01 12:06:55;;;;;;;24.08;11.55;;;-0.50;99.90;;;;;;5022486;28;20588;-71
2023/12/01 12:09:21;;;;;;;23.95;10.52;;;-0.50;99.90;;;;;;5032079;28;20068;-72
2023/12/01 12:11:49;;;;;;;26.67;11.07;;;-0.60;99.90;;;;;;5050741;28;20451;-71
2023/12/01 12:14:15;;;;;;;26.90;10.65;;;-0.60;99.90;;;;;;5049729;28;20037;-73
2023/12/01 12:16:41;;;;;;;22.83;11.43;;;-0.60;99.90;;;;;;5041805;28;20425;-73
2023/12/01 12:19:08;;;;;;;28.00;11.82;;;-0.50;99.90;;;;;;5013457;28;20034;-73
2023/12/01 12:21:35;;;;;;;26.00;11.18;;;-0.50;99.90;;;;;;5046240;28;20052;-72
2023/12/01 12:24:01;;;;;;;28.98;11.80;;;-0.40;99.90;;;;;;5029242;28;20072;-72
2023/12/01 12:26:28;;;;;;;28.88;12.13;;;-0.50;99.90;;;;;;5042886;28;20508;-71
2023/12/01 12:28:56;;;;;;;28.83;11.55;;;-0.40;99.90;;;;;;5020802;28;20523;-72
2023/12/01 12:31:35;;;;;;;27.00;12.13;;;-0.40;99.90;;;;;;5030025;28;20133;-72